CA-0145 weather

CLOSED Glendon Airport
Alberta, Canada

Public forecast

Using degrees Celsius for public forecast. Weather courtesy of forecast.io.

METAR (pilot weather report)

Closest report is CFB Cold Lake, 31.0 nm (57.5 km) ENE. Retrieved 2019/04/24 05:00 UTC (51 minutes ago):

CYOD 240500Z 26006KT 15SM SKC 08/M07 A2977 RMK SLP093

TAF (pilot weather forecast)

Closest forecast is CFB Cold Lake, 31.0 nm (57.5 km) ENE. Retrieved 2019/04/24 03:35 UTC (2 hours ago):

TAF CYOD 240230Z 2403/2424 29012KT P6SM FEW070 BECMG 2410/2412 29008KT FM241600 29010G20KT P6SM FEW070 FM242100 28012G22KT P6SM SCT070 BKN120 PROB30 2422/2424 VRB15G30KT 2SM TSRA BR BKN050CB RMK NXT FCST BY 240600Z